Time;durP1;ratioP1;P1;durP2;ratioP2;P2;SDS_P1;SDS_P2;PMS_P1;PMS_P2;Temp;Humidity;BMP_temperature;BMP_pressure;BME280_temperature;BME280_humidity;BME280_pressure;Samples;Min_cycle;Max_cycle;Signal;HPM_P1;HPM_P2
2021/10/11 00:02:51;;;;;;;11.20;2.30;;;11.70;99.90;;;;;;5043730;28;20044;-69
2021/10/11 00:05:55;;;;;;;8.00;2.70;;;11.70;99.90;;;;;;5048882;28;20040;-69
2021/10/11 00:08:59;;;;;;;8.05;2.28;;;11.60;99.90;;;;;;5049568;28;20416;-68
2021/10/11 00:12:04;;;;;;;14.75;3.05;;;11.70;99.90;;;;;;5029952;28;20033;-69
2021/10/11 00:15:08;;;;;;;8.20;2.60;;;11.70;99.90;;;;;;5033325;28;20052;-71
2021/10/11 00:18:12;;;;;;;7.00;2.17;;;11.70;99.90;;;;;;5029651;28;20380;-69
2021/10/11 00:21:16;;;;;;;5.85;1.70;;;11.70;99.90;;;;;;5047052;28;20048;-69
2021/10/11 00:24:21;;;;;;;6.05;2.10;;;11.60;99.90;;;;;;5038888;28;20507;-69
2021/10/11 00:27:25;;;;;;;5.63;2.45;;;11.60;99.90;;;;;;5030171;28;20487;-68
2021/10/11 00:30:29;;;;;;;9.55;2.00;;;11.50;99.90;;;;;;5029262;28;20053;-67
2021/10/11 00:33:33;;;;;;;5.40;2.25;;;11.50;99.90;;;;;;5029220;28;20048;-73
2021/10/11 00:36:37;;;;;;;6.75;2.20;;;11.40;99.90;;;;;;5030414;28;20119;-72
2021/10/11 00:39:42;;;;;;;6.03;1.80;;;11.40;99.90;;;;;;5030199;28;20539;-72
2021/10/11 00:42:47;;;;;;;6.38;1.90;;;11.40;99.90;;;;;;5039306;28;20040;-67
2021/10/11 00:45:52;;;;;;;10.35;2.30;;;11.30;99.90;;;;;;5049643;28;20044;-68
2021/10/11 00:48:56;;;;;;;4.32;2.28;;;11.30;99.90;;;;;;5052090;28;20041;-68
2021/10/11 00:52:00;;;;;;;3.80;1.90;;;11.30;99.90;;;;;;5040302;28;20048;-72
2021/10/11 00:55:05;;;;;;;8.05;2.30;;;11.30;99.90;;;;;;5033377;28;20041;-72
2021/10/11 00:58:11;;;;;;;4.35;1.75;;;11.20;99.90;;;;;;5032801;28;20331;-72
2021/10/11 01:01:17;;;;;;;8.50;3.33;;;11.10;99.90;;;;;;5036641;28;20044;-71
2021/10/11 01:04:21;;;;;;;8.00;3.05;;;11.10;99.90;;;;;;5033032;28;20048;-71
2021/10/11 01:07:25;;;;;;;10.48;2.50;;;11.20;99.90;;;;;;5034386;28;20049;-71
2021/10/11 01:10:30;;;;;;;7.30;2.00;;;11.20;99.90;;;;;;5049803;28;20057;-71
2021/10/11 01:13:34;;;;;;;6.18;2.25;;;11.10;99.90;;;;;;5048094;28;20040;-72
2021/10/11 01:16:38;;;;;;;8.00;2.67;;;11.10;99.90;;;;;;5054218;28;20395;-68
2021/10/11 01:19:47;;;;;;;7.97;2.42;;;11.00;99.90;;;;;;5051391;28;20494;-71
2021/10/11 01:22:51;;;;;;;9.68;2.55;;;11.00;99.90;;;;;;5051858;28;20035;-71
2021/10/11 01:25:55;;;;;;;6.78;2.72;;;11.00;99.90;;;;;;5052761;28;20052;-71
2021/10/11 01:29:00;;;;;;;6.47;2.25;;;11.00;99.90;;;;;;5052448;28;20044;-71
2021/10/11 01:32:04;;;;;;;11.63;2.78;;;11.00;99.90;;;;;;5038097;28;20052;-67
2021/10/11 01:35:10;;;;;;;9.48;2.50;;;11.00;99.90;;;;;;5032503;28;20048;-67
2021/10/11 01:38:14;;;;;;;6.63;2.50;;;11.10;99.90;;;;;;5032964;28;20499;-71
2021/10/11 01:41:21;;;;;;;9.93;3.47;;;11.10;99.90;;;;;;5032997;28;20041;-71
2021/10/11 01:44:25;;;;;;;4.30;2.70;;;11.10;99.90;;;;;;5036307;28;20040;-71
2021/10/11 01:47:31;;;;;;;9.32;2.75;;;11.20;99.90;;;;;;5032962;28;20400;-71
2021/10/11 01:50:35;;;;;;;8.30;3.17;;;11.20;99.90;;;;;;5047909;28;20052;-72
2021/10/11 01:53:38;;;;;;;7.40;3.05;;;11.30;99.90;;;;;;5051299;28;20059;-71
2021/10/11 01:56:42;;;;;;;12.10;2.92;;;11.20;99.90;;;;;;5052552;28;20054;-71
2021/10/11 01:59:47;;;;;;;14.40;4.03;;;11.30;99.90;;;;;;5050076;28;20048;-68
2021/10/11 02:02:50;;;;;;;7.18;2.90;;;11.20;99.90;;;;;;5051437;28;20068;-68
2021/10/11 02:05:55;;;;;;;12.77;2.70;;;11.10;99.90;;;;;;5051706;28;20486;-72
2021/10/11 02:08:58;;;;;;;6.10;3.38;;;11.10;99.90;;;;;;5031695;28;20048;-68
2021/10/11 02:12:02;;;;;;;5.40;2.60;;;11.00;99.90;;;;;;5035846;28;20045;-71
2021/10/11 02:15:08;;;;;;;5.80;2.55;;;11.00;99.90;;;;;;5032446;28;20040;-71
2021/10/11 02:18:12;;;;;;;8.65;2.58;;;10.90;99.90;;;;;;5051687;28;20380;-71
2021/10/11 02:21:16;;;;;;;7.28;2.75;;;10.90;99.90;;;;;;5040880;28;20400;-71
2021/10/11 02:24:20;;;;;;;7.70;3.00;;;10.90;99.90;;;;;;5032218;28;20048;-71
2021/10/11 02:27:24;;;;;;;8.05;3.08;;;10.80;99.90;;;;;;5032614;28;20040;-71
2021/10/11 02:30:29;;;;;;;9.82;3.22;;;10.80;99.90;;;;;;5042706;28;20376;-71
2021/10/11 02:33:33;;;;;;;11.48;3.30;;;10.80;99.90;;;;;;5051469;28;20059;-71
2021/10/11 02:36:40;;;;;;;5.55;2.67;;;10.80;99.90;;;;;;5050777;28;20056;-71
2021/10/11 02:39:44;;;;;;;7.72;3.22;;;10.80;99.90;;;;;;5045805;28;20056;-71
2021/10/11 02:42:48;;;;;;;7.25;3.28;;;10.80;99.90;;;;;;5050248;28;20610;-71
2021/10/11 02:45:52;;;;;;;7.95;3.28;;;10.80;99.90;;;;;;5051109;28;20218;-68
2021/10/11 02:48:57;;;;;;;5.80;2.88;;;10.90;99.90;;;;;;5034205;28;20060;-68
2021/10/11 02:52:02;;;;;;;4.85;2.67;;;10.90;99.90;;;;;;5030772;28;20044;-68
2021/10/11 02:55:06;;;;;;;8.73;3.00;;;10.90;99.90;;;;;;5031701;28;20495;-70
2021/10/11 02:58:10;;;;;;;11.65;3.10;;;10.90;99.90;;;;;;5048609;28;20052;-71
2021/10/11 03:01:15;;;;;;;11.57;3.15;;;10.90;99.90;;;;;;5045581;28;20400;-71
2021/10/11 03:04:19;;;;;;;7.90;2.90;;;10.90;99.90;;;;;;5051184;28;20051;-71
2021/10/11 03:07:23;;;;;;;9.43;3.22;;;11.00;99.90;;;;;;5051172;28;20044;-72
2021/10/11 03:10:28;;;;;;;15.32;3.67;;;11.00;99.90;;;;;;5040432;28;20059;-71
2021/10/11 03:13:32;;;;;;;7.03;3.00;;;11.00;99.90;;;;;;5031977;28;20072;-71
2021/10/11 03:16:36;;;;;;;11.10;3.55;;;11.10;99.90;;;;;;5051069;28;20388;-71
2021/10/11 03:19:40;;;;;;;8.50;3.92;;;11.10;99.90;;;;;;5034640;28;20056;-72
2021/10/11 03:22:44;;;;;;;7.45;3.42;;;11.20;99.90;;;;;;5034535;28;20052;-71
2021/10/11 03:25:48;;;;;;;7.13;3.20;;;11.20;99.90;;;;;;5031028;28;20494;-72
2021/10/11 03:28:52;;;;;;;7.30;3.17;;;11.20;99.90;;;;;;5042992;28;20407;-67
2021/10/11 03:31:56;;;;;;;9.40;3.13;;;11.20;99.90;;;;;;5044870;28;20052;-67
2021/10/11 03:35:00;;;;;;;5.85;3.10;;;11.20;99.90;;;;;;5031114;28;20048;-68
2021/10/11 03:38:04;;;;;;;12.93;4.38;;;11.20;99.90;;;;;;5048107;28;20055;-67
2021/10/11 03:41:08;;;;;;;9.50;2.95;;;11.20;99.90;;;;;;5045478;28;20395;-69
2021/10/11 03:44:13;;;;;;;11.85;4.97;;;11.20;99.90;;;;;;5050832;28;20040;-68
2021/10/11 03:47:18;;;;;;;7.05;3.22;;;11.30;99.90;;;;;;5033413;28;20048;-68
2021/10/11 03:50:21;;;;;;;7.80;3.25;;;11.30;99.90;;;;;;5034178;28;20048;-71
2021/10/11 03:53:26;;;;;;;8.88;4.03;;;11.30;99.90;;;;;;5030793;28;20045;-72
2021/10/11 03:56:30;;;;;;;6.20;3.28;;;11.40;99.90;;;;;;5030588;28;20049;-68
2021/10/11 03:59:34;;;;;;;8.00;3.10;;;11.50;99.90;;;;;;5037008;28;20060;-71
2021/10/11 04:02:39;;;;;;;7.05;3.53;;;11.50;99.90;;;;;;5049760;28;20050;-68
2021/10/11 04:05:43;;;;;;;7.78;3.33;;;11.40;99.90;;;;;;5050322;28;20048;-68
2021/10/11 04:08:49;;;;;;;9.68;3.10;;;11.50;99.90;;;;;;5036057;28;20112;-71
2021/10/11 04:11:54;;;;;;;7.43;2.90;;;11.50;99.90;;;;;;5032610;28;20060;-71
2021/10/11 04:14:58;;;;;;;8.93;3.42;;;11.50;99.90;;;;;;5050292;28;20048;-68
2021/10/11 04:18:02;;;;;;;10.60;3.53;;;11.50;99.90;;;;;;5048718;28;20388;-68
2021/10/11 04:21:06;;;;;;;8.00;3.30;;;11.50;99.90;;;;;;5049048;28;20064;-71
2021/10/11 04:24:14;;;;;;;5.43;3.17;;;11.50;99.90;;;;;;5054062;28;20044;-68
2021/10/11 04:27:18;;;;;;;9.38;3.25;;;11.50;99.90;;;;;;5053063;28;20044;-72
2021/10/11 04:30:22;;;;;;;12.20;3.22;;;11.50;99.90;;;;;;5049785;28;20056;-71
2021/10/11 04:33:27;;;;;;;8.25;3.30;;;11.50;99.90;;;;;;5034797;28;20052;-71
2021/10/11 04:36:31;;;;;;;7.38;3.55;;;11.50;99.90;;;;;;5035559;28;20048;-72
2021/10/11 04:39:35;;;;;;;9.88;4.03;;;11.50;99.90;;;;;;5034458;28;20500;-72
2021/10/11 04:42:39;;;;;;;8.73;3.22;;;11.50;99.90;;;;;;5034024;28;20052;-71
2021/10/11 04:45:43;;;;;;;5.70;3.10;;;11.60;99.90;;;;;;5033582;28;20121;-71
2021/10/11 04:48:48;;;;;;;5.22;2.90;;;11.60;99.90;;;;;;5033845;28;20053;-71
2021/10/11 04:51:52;;;;;;;8.38;3.10;;;11.60;99.90;;;;;;5034250;28;20389;-72
2021/10/11 04:54:56;;;;;;;21.13;5.57;;;11.60;99.90;;;;;;5053866;28;20056;-71
2021/10/11 04:58:00;;;;;;;12.88;3.38;;;11.60;99.90;;;;;;5048388;28;20059;-72
2021/10/11 05:01:04;;;;;;;9.15;3.47;;;11.60;99.90;;;;;;5053181;28;20072;-71
2021/10/11 05:04:09;;;;;;;7.93;3.50;;;11.60;99.90;;;;;;5034343;28;20048;-71
2021/10/11 05:07:13;;;;;;;6.80;3.60;;;11.60;99.90;;;;;;5034635;28;20065;-72
2021/10/11 05:10:17;;;;;;;9.00;3.17;;;11.60;99.90;;;;;;5036688;28;20059;-72
2021/10/11 05:13:21;;;;;;;6.68;2.58;;;11.60;99.90;;;;;;5033223;28;20056;-72
2021/10/11 05:16:27;;;;;;;7.03;3.08;;;11.70;99.90;;;;;;5032761;28;20053;-73
2021/10/11 05:19:32;;;;;;;10.30;3.20;;;11.80;99.90;;;;;;5034730;28;20072;-71
2021/10/11 05:22:37;;;;;;;9.57;4.03;;;11.70;99.90;;;;;;5053646;28;20048;-68
2021/10/11 05:25:41;;;;;;;6.15;3.38;;;11.80;99.90;;;;;;5033711;28;20052;-67
2021/10/11 05:28:46;;;;;;;10.07;3.33;;;11.80;99.90;;;;;;5040019;28;20067;-69
2021/10/11 05:31:51;;;;;;;9.00;2.75;;;11.80;99.90;;;;;;5053792;28;20411;-67
2021/10/11 05:34:58;;;;;;;5.15;3.13;;;11.80;99.90;;;;;;5050861;28;20048;-69
2021/10/11 05:38:04;;;;;;;11.05;3.88;;;11.80;99.90;;;;;;5041795;28;20076;-68
2021/10/11 05:41:09;;;;;;;6.95;2.88;;;11.80;99.90;;;;;;5033648;28;20045;-68
2021/10/11 05:44:12;;;;;;;12.13;2.80;;;11.80;99.90;;;;;;5032771;28;20123;-68
2021/10/11 05:47:16;;;;;;;7.88;2.67;;;11.80;99.90;;;;;;5045007;28;20388;-68
2021/10/11 05:50:21;;;;;;;6.18;2.50;;;11.80;99.90;;;;;;5052512;28;20055;-68
2021/10/11 05:53:25;;;;;;;5.20;2.58;;;11.80;99.90;;;;;;5052459;28;20055;-68
2021/10/11 05:56:29;;;;;;;7.22;2.63;;;11.80;99.90;;;;;;5051128;28;20052;-67
2021/10/11 05:59:33;;;;;;;8.90;2.72;;;11.80;99.90;;;;;;5048797;28;20049;-69
2021/10/11 06:02:37;;;;;;;5.90;2.38;;;11.80;99.90;;;;;;5033019;28;20072;-67
2021/10/11 06:05:41;;;;;;;8.65;2.35;;;11.90;99.90;;;;;;5045737;28;20044;-69
2021/10/11 06:08:45;;;;;;;6.78;2.67;;;11.90;99.90;;;;;;5050873;28;20048;-67
2021/10/11 06:11:49;;;;;;;4.20;2.35;;;11.90;99.90;;;;;;5031363;28;20048;-68
2021/10/11 06:14:53;;;;;;;5.45;2.28;;;11.90;99.90;;;;;;5051098;28;20051;-68
2021/10/11 06:17:57;;;;;;;3.15;2.20;;;11.90;99.90;;;;;;5051736;28;20048;-68
2021/10/11 06:21:02;;;;;;;5.55;2.17;;;11.90;99.90;;;;;;5053379;28;20159;-68
2021/10/11 06:24:09;;;;;;;3.72;2.25;;;11.90;99.90;;;;;;5048621;28;20329;-68
2021/10/11 06:27:13;;;;;;;5.25;2.20;;;11.90;99.90;;;;;;5041000;28;20040;-68
2021/10/11 06:30:18;;;;;;;6.28;1.90;;;12.00;99.90;;;;;;5050912;28;20052;-68
2021/10/11 06:33:23;;;;;;;4.85;2.20;;;12.00;99.90;;;;;;5037546;28;20052;-68
2021/10/11 06:36:28;;;;;;;4.85;1.92;;;12.10;99.90;;;;;;5046357;28;20044;-68
2021/10/11 06:39:33;;;;;;;6.00;1.70;;;12.00;99.90;;;;;;5031339;28;20049;-68
2021/10/11 06:42:37;;;;;;;10.45;2.55;;;12.00;99.90;;;;;;5043558;28;20052;-68
2021/10/11 06:45:42;;;;;;;5.93;2.20;;;12.00;99.90;;;;;;5037023;28;20028;-68
2021/10/11 06:48:46;;;;;;;7.82;1.88;;;12.00;99.90;;;;;;5035483;28;20230;-67
2021/10/11 06:51:51;;;;;;;4.45;2.08;;;12.00;99.90;;;;;;5043237;28;20052;-68
2021/10/11 06:54:56;;;;;;;3.85;1.83;;;12.00;99.90;;;;;;5046724;28;20072;-68
2021/10/11 06:58:00;;;;;;;6.97;1.83;;;12.00;99.90;;;;;;5042981;28;20056;-68
2021/10/11 07:01:04;;;;;;;4.70;1.73;;;12.00;99.90;;;;;;5042477;28;20123;-69
2021/10/11 07:04:09;;;;;;;5.40;1.70;;;12.10;99.90;;;;;;5045759;28;20044;-68
2021/10/11 07:07:13;;;;;;;6.20;2.50;;;12.10;99.90;;;;;;5040141;28;20048;-68
2021/10/11 07:10:17;;;;;;;4.47;2.10;;;12.20;99.90;;;;;;5041781;28;20380;-68
2021/10/11 07:13:22;;;;;;;4.85;2.47;;;12.20;99.90;;;;;;5047747;28;20044;-68
2021/10/11 07:16:27;;;;;;;2.72;1.90;;;12.20;99.90;;;;;;5043639;28;20048;-68
2021/10/11 07:19:31;;;;;;;4.82;2.28;;;12.20;99.90;;;;;;5045422;28;20487;-68
2021/10/11 07:22:36;;;;;;;7.82;2.28;;;12.30;99.90;;;;;;5043327;28;20045;-68
2021/10/11 07:25:41;;;;;;;6.70;2.25;;;12.30;99.90;;;;;;5035464;28;20040;-68
2021/10/11 07:28:45;;;;;;;4.75;2.38;;;12.30;99.90;;;;;;5033676;28;20044;-67
2021/10/11 07:31:50;;;;;;;4.75;2.03;;;12.30;99.90;;;;;;5051062;28;20391;-69
2021/10/11 07:34:54;;;;;;;6.13;2.30;;;12.40;99.90;;;;;;5037557;28;20048;-68
2021/10/11 07:37:59;;;;;;;6.68;2.38;;;12.40;99.90;;;;;;5039462;28;20052;-67
2021/10/11 07:41:04;;;;;;;6.20;2.08;;;12.50;99.90;;;;;;5038917;28;20052;-67
2021/10/11 07:44:09;;;;;;;7.25;2.00;;;12.50;99.90;;;;;;5038440;28;20503;-68
2021/10/11 07:47:13;;;;;;;3.83;2.20;;;12.40;99.90;;;;;;5041655;28;20044;-67
2021/10/11 07:50:17;;;;;;;4.00;2.10;;;12.40;99.90;;;;;;5040123;28;20041;-68
2021/10/11 07:53:21;;;;;;;5.30;2.45;;;12.30;99.90;;;;;;5046734;28;20032;-67
2021/10/11 07:56:25;;;;;;;7.32;2.55;;;12.30;99.90;;;;;;5040220;28;20459;-68
2021/10/11 07:59:30;;;;;;;6.28;2.47;;;12.40;99.90;;;;;;5037454;28;20044;-68
2021/10/11 08:02:33;;;;;;;6.85;2.67;;;12.50;99.90;;;;;;5036941;28;20056;-68
2021/10/11 08:05:39;;;;;;;4.30;2.08;;;12.50;99.90;;;;;;5038189;28;20044;-68
2021/10/11 08:08:43;;;;;;;4.07;2.05;;;12.50;99.90;;;;;;5043522;28;20043;-68
2021/10/11 08:11:47;;;;;;;6.45;2.15;;;12.60;99.90;;;;;;5044928;28;20040;-68
2021/10/11 08:14:51;;;;;;;6.70;2.10;;;12.70;99.90;;;;;;5039372;28;20036;-68
2021/10/11 08:17:55;;;;;;;5.15;2.13;;;12.70;99.90;;;;;;5040699;28;20045;-67
2021/10/11 08:21:01;;;;;;;4.35;1.98;;;12.70;99.90;;;;;;5037707;28;20044;-68
2021/10/11 08:24:06;;;;;;;3.30;1.98;;;12.70;99.90;;;;;;5046828;28;20040;-68
2021/10/11 08:27:16;;;;;;;9.32;1.85;;;12.80;99.90;;;;;;5044527;28;20044;-68
2021/10/11 08:30:20;;;;;;;8.75;2.10;;;12.80;99.90;;;;;;5030440;28;20596;-68
2021/10/11 08:33:24;;;;;;;4.93;1.60;;;12.80;99.90;;;;;;5040489;28;20044;-68
2021/10/11 08:36:28;;;;;;;3.53;1.85;;;12.90;99.90;;;;;;5034800;28;20055;-68
2021/10/11 08:39:32;;;;;;;3.33;1.60;;;12.90;99.90;;;;;;5030150;28;20044;-68
2021/10/11 08:42:37;;;;;;;5.95;2.08;;;12.90;99.90;;;;;;5041268;28;20040;-68
2021/10/11 08:45:47;;;;;;;3.15;1.80;;;12.90;99.90;;;;;;5037991;28;20032;-68
2021/10/11 08:48:51;;;;;;;4.97;1.80;;;12.80;99.90;;;;;;5049467;28;20052;-68
2021/10/11 08:51:56;;;;;;;4.97;2.17;;;12.90;99.90;;;;;;5038532;28;20047;-68
2021/10/11 08:55:05;;;;;;;4.82;1.85;;;12.80;99.90;;;;;;5044899;28;20056;-69
2021/10/11 08:58:09;;;;;;;9.82;2.15;;;13.00;99.90;;;;;;5036208;28;20095;-68
2021/10/11 09:01:15;;;;;;;2.70;1.90;;;13.10;99.90;;;;;;5035138;28;20052;-68
2021/10/11 09:04:19;;;;;;;8.00;2.05;;;13.20;99.90;;;;;;5033128;28;20048;-69
2021/10/11 09:07:25;;;;;;;5.07;1.80;;;13.40;99.90;;;;;;5043096;28;20387;-68
2021/10/11 09:10:31;;;;;;;5.20;1.73;;;13.50;99.90;;;;;;5041893;28;20044;-69
2021/10/11 09:13:40;;;;;;;5.78;2.00;;;13.60;99.90;;;;;;5043152;28;20036;-69
2021/10/11 09:16:56;;;;;;;5.25;2.20;;;13.80;99.90;;;;;;5048547;28;20150;-68
2021/10/11 09:20:12;;;;;;;5.15;2.10;;;13.90;99.90;;;;;;5049551;28;20037;-68
2021/10/11 09:23:23;;;;;;;5.63;2.03;;;14.00;99.90;;;;;;5041900;28;20044;-69
2021/10/11 09:26:41;;;;;;;7.57;2.90;;;14.20;99.90;;;;;;5041008;28;20044;-69
2021/10/11 09:29:46;;;;;;;7.20;2.65;;;14.40;99.90;;;;;;5051672;28;20048;-70
2021/10/11 09:32:50;;;;;;;6.70;2.78;;;14.60;99.90;;;;;;5033547;28;20435;-69
2021/10/11 09:35:54;;;;;;;5.57;2.33;;;14.90;99.90;;;;;;5047395;28;20040;-69
2021/10/11 09:38:59;;;;;;;4.18;1.90;;;15.20;99.70;;;;;;5049254;28;20052;-73
2021/10/11 09:42:05;;;;;;;5.18;2.58;;;15.50;99.40;;;;;;5049906;28;20055;-73
2021/10/11 09:45:10;;;;;;;7.70;2.28;;;15.60;98.80;;;;;;5044395;28;20052;-72
2021/10/11 09:48:14;;;;;;;9.30;2.85;;;15.60;98.80;;;;;;5046758;28;20055;-73
2021/10/11 09:51:24;;;;;;;7.85;3.03;;;15.40;98.00;;;;;;5043367;28;20040;-73
2021/10/11 09:54:29;;;;;;;4.40;2.47;;;15.40;98.00;;;;;;5034270;28;20056;-73
2021/10/11 09:57:34;;;;;;;4.82;2.72;;;15.10;98.60;;;;;;5040708;28;20044;-73
2021/10/11 10:00:42;;;;;;;5.78;2.25;;;15.30;98.50;;;;;;5054813;28;20044;-73
2021/10/11 10:03:47;;;;;;;7.72;2.63;;;15.50;98.20;;;;;;5047752;28;20056;-72
2021/10/11 10:06:55;;;;;;;5.13;3.10;;;15.70;97.60;;;;;;5047361;28;20044;-73
2021/10/11 10:10:05;;;;;;;7.32;2.88;;;15.60;97.00;;;;;;5044025;28;20052;-73
2021/10/11 10:13:16;;;;;;;5.13;2.90;;;15.30;97.80;;;;;;5047060;28;20051;-73
2021/10/11 10:16:21;;;;;;;6.75;3.50;;;15.40;98.00;;;;;;5042259;28;20060;-72
2021/10/11 10:19:35;;;;;;;6.05;3.05;;;15.40;97.20;;;;;;5035778;28;20510;-71
2021/10/11 10:22:39;;;;;;;8.55;2.90;;;15.10;97.20;;;;;;5051326;28;20040;-73
2021/10/11 10:25:46;;;;;;;8.95;3.22;;;15.00;97.40;;;;;;5047585;28;20052;-72
2021/10/11 10:28:52;;;;;;;8.30;3.30;;;14.90;97.60;;;;;;5047936;28;20040;-72
2021/10/11 10:32:06;;;;;;;11.77;3.28;;;15.00;97.70;;;;;;5051894;28;20048;-73
2021/10/11 10:35:19;;;;;;;8.80;3.63;;;14.90;97.60;;;;;;5051193;28;20539;-72
2021/10/11 10:38:24;;;;;;;8.85;3.25;;;15.30;97.70;;;;;;5044682;28;20048;-72
2021/10/11 10:41:29;;;;;;;5.07;3.33;;;16.30;96.60;;;;;;5051718;28;20250;-73
2021/10/11 10:44:43;;;;;;;8.45;3.28;;;16.80;96.20;;;;;;5039983;28;20040;-72
2021/10/11 10:47:50;;;;;;;6.28;3.03;;;16.70;95.80;;;;;;5049938;28;20056;-72
2021/10/11 10:51:03;;;;;;;8.45;3.17;;;16.90;95.90;;;;;;5047893;28;20052;-73
2021/10/11 10:54:07;;;;;;;8.73;3.28;;;17.20;95.70;;;;;;5035259;28;20052;-73
2021/10/11 10:57:17;;;;;;;6.97;3.20;;;17.10;95.30;;;;;;5034133;28;20566;-72
2021/10/11 11:00:21;;;;;;;9.50;3.70;;;16.70;95.10;;;;;;5037941;28;20425;-72
2021/10/11 11:03:25;;;;;;;5.70;3.55;;;16.50;95.60;;;;;;5048001;28;20048;-72
2021/10/11 11:06:31;;;;;;;5.80;3.25;;;16.60;95.40;;;;;;5045716;28;20044;-73
2021/10/11 11:09:46;;;;;;;4.55;2.80;;;17.30;94.80;;;;;;5038206;28;20384;-72
2021/10/11 11:12:58;;;;;;;14.75;4.07;;;17.10;95.10;;;;;;5031625;28;20044;-72
2021/10/11 11:16:04;;;;;;;11.25;4.07;;;17.10;95.40;;;;;;5037676;28;20048;-73
2021/10/11 11:19:12;;;;;;;16.55;4.00;;;17.40;95.20;;;;;;5031634;28;20041;-73
2021/10/11 11:22:35;;;;;;;7.80;3.20;;;17.60;95.00;;;;;;5035397;28;20051;-72
2021/10/11 11:25:45;;;;;;;4.95;3.03;;;19.20;93.40;;;;;;5032293;28;20057;-72
2021/10/11 11:28:50;;;;;;;7.90;2.88;;;21.00;92.20;;;;;;5047944;28;20059;-73
2021/10/11 11:31:54;;;;;;;8.98;3.47;;;21.70;91.00;;;;;;5048571;28;20052;-73
2021/10/11 11:34:58;;;;;;;6.30;3.70;;;19.20;91.80;;;;;;5051110;28;20047;-73
2021/10/11 11:38:06;;;;;;;12.07;3.60;;;18.40;93.50;;;;;;5030264;28;20056;-73
2021/10/11 11:41:10;;;;;;;7.97;3.45;;;18.40;94.40;;;;;;5030474;28;20048;-73
2021/10/11 11:44:22;;;;;;;15.57;4.03;;;17.70;94.20;;;;;;5030478;28;20049;-73
2021/10/11 11:47:28;;;;;;;9.73;3.80;;;17.00;95.30;;;;;;5030646;28;20052;-72
2021/10/11 11:50:32;;;;;;;8.65;3.60;;;17.60;94.50;;;;;;5031493;28;20055;-69
2021/10/11 11:53:39;;;;;;;12.60;4.28;;;16.90;94.10;;;;;;5036011;28;20510;-69
2021/10/11 11:56:44;;;;;;;9.20;3.85;;;16.30;96.00;;;;;;5030435;28;20049;-69
2021/10/11 11:59:49;;;;;;;9.88;3.80;;;16.40;96.00;;;;;;5030138;28;20400;-69
2021/10/11 12:02:54;;;;;;;8.63;3.53;;;16.70;95.80;;;;;;5036044;28;20044;-69
2021/10/11 12:06:00;;;;;;;8.38;4.45;;;17.30;95.40;;;;;;5032750;28;20405;-69
2021/10/11 12:09:05;;;;;;;9.57;4.10;;;17.60;94.10;;;;;;5032294;28;20052;-70
2021/10/11 12:12:09;;;;;;;10.23;4.47;;;17.00;94.80;;;;;;5028747;28;20044;-70
2021/10/11 12:15:22;;;;;;;9.82;3.75;;;16.60;95.40;;;;;;5031419;28;20045;-70
2021/10/11 12:18:38;;;;;;;8.60;3.65;;;16.60;95.30;;;;;;5029306;28;20044;-70
2021/10/11 12:21:52;;;;;;;10.52;4.28;;;17.00;95.00;;;;;;5033816;28;20061;-69
2021/10/11 12:25:01;;;;;;;6.90;3.92;;;17.30;94.70;;;;;;5029407;28;20060;-69
2021/10/11 12:28:17;;;;;;;10.45;5.20;;;17.60;94.60;;;;;;5031371;28;20052;-69
2021/10/11 12:31:27;;;;;;;9.15;4.25;;;17.90;94.50;;;;;;5031062;28;20052;-69
2021/10/11 12:34:52;;;;;;;8.60;4.00;;;18.10;94.20;;;;;;5038750;28;20059;-69
2021/10/11 12:38:05;;;;;;;9.07;3.58;;;18.50;93.60;;;;;;5050150;28;20060;-69
2021/10/11 12:41:13;;;;;;;8.82;3.60;;;18.30;93.00;;;;;;5030369;28;20048;-69
2021/10/11 12:44:32;;;;;;;11.43;3.88;;;17.30;94.20;;;;;;5035968;28;20412;-69
2021/10/11 12:47:38;;;;;;;5.95;3.03;;;19.40;93.20;;;;;;5039324;28;20044;-69
2021/10/11 12:50:52;;;;;;;7.47;3.90;;;23.60;87.80;;;;;;5053783;28;20166;-70
2021/10/11 12:54:05;;;;;;;6.50;3.13;;;26.10;82.30;;;;;;5033655;28;20049;-70
2021/10/11 12:57:09;;;;;;;10.00;3.78;;;26.40;79.20;;;;;;5045071;28;20498;-70
2021/10/11 13:00:18;;;;;;;6.60;3.13;;;23.60;80.70;;;;;;5052528;28;20040;-70
2021/10/11 13:03:22;;;;;;;7.50;3.63;;;24.50;82.60;;;;;;5053146;28;20051;-70
2021/10/11 13:06:32;;;;;;;8.20;3.40;;;24.40;79.50;;;;;;5048002;28;20383;-70
2021/10/11 13:09:36;;;;;;;5.47;2.67;;;23.60;81.70;;;;;;5040264;28;20036;-71
2021/10/11 13:12:40;;;;;;;8.10;2.95;;;26.10;77.80;;;;;;5038664;28;20048;-70
2021/10/11 13:15:46;;;;;;;8.23;3.63;;;24.60;77.90;;;;;;5045607;28;20039;-70
2021/10/11 13:18:50;;;;;;;10.23;3.60;;;25.20;77.80;;;;;;5048415;28;20039;-70
2021/10/11 13:21:54;;;;;;;9.57;3.35;;;25.60;76.50;;;;;;5035073;28;20412;-70
2021/10/11 13:24:58;;;;;;;5.53;3.08;;;24.50;78.10;;;;;;5052611;28;20056;-70
2021/10/11 13:28:02;;;;;;;6.00;2.88;;;25.60;78.20;;;;;;5051010;28;20466;-70
2021/10/11 14:27:43;;;;;;;3.55;1.60;;;26.00;69.40;;;;;;5037973;28;20052;-72
2021/10/11 16:01:23;;;;;;;3.28;2.00;;;17.60;86.80;;;;;;5034252;28;20044;-73
2021/10/11 16:04:27;;;;;;;3.40;1.77;;;17.40;87.40;;;;;;5031852;28;20487;-74
2021/10/11 16:07:31;;;;;;;3.20;1.73;;;17.20;87.80;;;;;;5030320;28;20048;-74
2021/10/11 16:10:35;;;;;;;4.82;2.38;;;17.00;87.80;;;;;;5047867;28;20044;-72
2021/10/11 16:13:41;;;;;;;6.25;3.50;;;16.80;89.30;;;;;;5045738;28;20040;-72
2021/10/11 16:16:46;;;;;;;10.27;3.10;;;16.60;90.70;;;;;;5033892;28;20033;-72
2021/10/11 16:19:51;;;;;;;6.82;3.50;;;16.40;91.30;;;;;;5035593;28;20056;-72
2021/10/11 16:22:57;;;;;;;5.47;2.70;;;16.20;91.70;;;;;;5038645;28;20052;-73
2021/10/11 16:26:04;;;;;;;6.10;2.50;;;16.00;92.60;;;;;;5055766;28;20052;-72
2021/10/11 16:29:08;;;;;;;4.63;2.90;;;15.70;93.20;;;;;;5054905;28;20498;-72
2021/10/11 16:32:12;;;;;;;4.35;2.67;;;15.50;93.80;;;;;;5054210;28;20044;-72
2021/10/11 16:35:17;;;;;;;7.15;2.92;;;15.20;94.40;;;;;;5054794;28;20498;-72
2021/10/11 16:38:21;;;;;;;6.35;2.70;;;14.90;94.80;;;;;;5035443;28;20052;-72
2021/10/11 16:41:26;;;;;;;7.25;2.65;;;14.80;95.30;;;;;;5037062;28;20048;-72
2021/10/11 16:44:33;;;;;;;4.43;2.90;;;14.60;95.90;;;;;;5037120;28;20052;-72
2021/10/11 16:47:39;;;;;;;6.65;3.55;;;14.40;96.40;;;;;;5032615;28;20159;-72
2021/10/11 16:50:43;;;;;;;6.78;4.03;;;14.20;96.70;;;;;;5040819;28;20512;-72
2021/10/11 16:57:04;;;;;;;6.03;2.67;;;13.90;97.60;;;;;;5039678;28;20057;-72
2021/10/11 17:00:11;;;;;;;5.10;3.00;;;13.80;97.90;;;;;;5034492;28;20052;-72
2021/10/11 17:03:16;;;;;;;5.30;3.13;;;13.70;98.20;;;;;;5035403;28;20495;-72
2021/10/11 17:06:19;;;;;;;7.00;3.75;;;13.60;98.50;;;;;;5034687;28;20123;-72
2021/10/11 17:09:24;;;;;;;5.38;2.75;;;13.50;98.80;;;;;;5052291;28;20036;-72
2021/10/11 17:12:31;;;;;;;6.90;3.58;;;13.50;99.00;;;;;;5051404;28;20499;-72
2021/10/11 17:15:35;;;;;;;6.38;3.47;;;13.40;99.00;;;;;;5035074;28;20056;-72
2021/10/11 17:18:40;;;;;;;7.70;3.20;;;13.40;99.40;;;;;;5035354;28;20045;-72
2021/10/11 17:21:44;;;;;;;7.00;3.13;;;13.30;99.20;;;;;;5046641;28;20052;-72
2021/10/11 17:24:50;;;;;;;9.30;5.45;;;13.30;99.60;;;;;;5056618;28;20051;-72
2021/10/11 17:27:54;;;;;;;13.55;5.00;;;13.20;99.90;;;;;;5037110;28;20040;-72
2021/10/11 17:30:59;;;;;;;11.73;6.10;;;13.10;99.90;;;;;;5038149;28;20048;-72
2021/10/11 17:34:03;;;;;;;13.63;6.55;;;13.00;99.90;;;;;;5040105;28;20063;-71
2021/10/11 17:37:08;;;;;;;9.77;5.55;;;13.00;99.90;;;;;;5036456;28;20064;-71
2021/10/11 17:40:13;;;;;;;10.40;5.07;;;12.90;99.90;;;;;;5035147;28;20048;-72
2021/10/11 17:43:17;;;;;;;11.57;5.78;;;12.80;99.90;;;;;;5035431;28;20040;-72
2021/10/11 17:46:21;;;;;;;9.25;5.40;;;12.70;99.90;;;;;;5035101;28;20063;-72
2021/10/11 17:49:25;;;;;;;13.45;5.75;;;12.60;99.90;;;;;;5048569;28;20052;-72
2021/10/11 17:52:30;;;;;;;11.65;6.38;;;12.60;99.90;;;;;;5046087;28;20044;-72
2021/10/11 17:55:34;;;;;;;12.07;6.07;;;12.50;99.90;;;;;;5034834;28;20488;-71
2021/10/11 17:58:40;;;;;;;12.25;5.25;;;12.50;99.90;;;;;;5035819;28;20052;-72
2021/10/11 18:01:44;;;;;;;11.15;5.03;;;12.40;99.90;;;;;;5039318;28;20044;-71
2021/10/11 18:04:48;;;;;;;16.83;9.70;;;12.30;99.90;;;;;;5034744;28;20049;-71
2021/10/11 18:07:52;;;;;;;16.10;6.60;;;12.20;99.90;;;;;;5032261;28;20052;-71
2021/10/11 18:10:57;;;;;;;11.50;5.53;;;11.80;99.90;;;;;;5045915;28;20036;-71
2021/10/11 18:14:02;;;;;;;11.57;6.25;;;11.80;99.90;;;;;;5054416;28;20051;-71
2021/10/11 18:17:06;;;;;;;10.18;5.70;;;11.70;99.90;;;;;;5032851;28;20246;-72
2021/10/11 18:20:12;;;;;;;9.85;5.00;;;11.80;99.90;;;;;;5047145;28;20056;-71
2021/10/11 18:23:18;;;;;;;11.63;5.10;;;11.80;99.90;;;;;;5048789;28;20502;-69
2021/10/11 18:26:23;;;;;;;9.75;4.90;;;11.70;99.90;;;;;;5032609;28;20109;-69
2021/10/11 18:29:27;;;;;;;9.98;4.45;;;11.80;99.90;;;;;;5050681;28;20067;-69
2021/10/11 18:32:32;;;;;;;8.90;4.22;;;11.80;99.90;;;;;;5048547;28;20048;-69
2021/10/11 18:35:36;;;;;;;10.40;4.88;;;11.80;99.90;;;;;;5052407;28;20510;-70